createdAt,value
2022-10-23T00:01:51.348Z,12.00
2022-10-23T00:04:21.043Z,12.00
2022-10-23T00:06:49.166Z,12.00
2022-10-23T00:09:18.432Z,11.80
2022-10-23T00:14:16.773Z,12.00
2022-10-23T00:41:28.949Z,11.90
2022-10-23T00:44:35.694Z,11.70
2022-10-23T00:52:28.251Z,11.90
2022-10-23T01:07:37.040Z,11.90
2022-10-23T01:10:31.770Z,12.00
2022-10-23T01:13:38.609Z,11.90
2022-10-23T01:16:34.088Z,11.90
2022-10-23T01:19:28.115Z,12.00
2022-10-23T01:22:11.913Z,12.00
2022-10-23T01:24:56.258Z,12.00
2022-10-23T01:27:32.629Z,11.90
2022-10-23T01:30:24.006Z,12.00
2022-10-23T01:33:16.313Z,12.00
2022-10-23T01:35:52.713Z,11.90
2022-10-23T01:38:42.711Z,12.00
2022-10-23T01:41:16.730Z,12.00
2022-10-23T01:43:54.184Z,11.90
2022-10-23T01:46:23.848Z,12.00
2022-10-23T01:48:55.023Z,12.00
2022-10-23T01:51:26.726Z,11.90
2022-10-23T01:54:00.536Z,11.90
2022-10-23T01:56:32.143Z,11.90
2022-10-23T01:59:03.648Z,11.90
2022-10-23T02:01:33.236Z,11.90
2022-10-23T02:04:03.376Z,12.00
2022-10-23T02:14:20.526Z,12.00
2022-10-23T02:16:59.420Z,11.90
2022-10-23T02:19:33.398Z,12.00
2022-10-23T02:22:40.494Z,12.00
2022-10-23T02:25:15.523Z,12.00
2022-10-23T02:27:47.219Z,12.00
2022-10-23T02:30:18.237Z,12.00
2022-10-23T02:32:49.087Z,12.00
2022-10-23T02:35:17.877Z,12.00
2022-10-23T02:37:52.202Z,12.10
2022-10-23T02:42:57.106Z,12.10
2022-10-23T02:45:33.716Z,12.00
2022-10-23T02:48:23.984Z,12.10
2022-10-23T02:51:15.505Z,12.10
2022-10-23T02:54:09.311Z,12.00
2022-10-23T02:57:00.310Z,12.00
2022-10-23T02:59:43.120Z,12.00
2022-10-23T03:02:21.029Z,12.00
2022-10-23T03:04:48.956Z,12.00
2022-10-23T03:17:07.803Z,12.00
2022-10-23T04:01:25.117Z,11.90
2022-10-23T04:28:27.331Z,12.10
2022-10-23T05:12:45.033Z,12.20
2022-10-23T05:17:43.179Z,12.20
2022-10-23T05:20:15.723Z,12.20
2022-10-23T05:22:46.806Z,12.20
2022-10-23T05:30:14.387Z,12.20
2022-10-23T05:32:42.198Z,12.20
2022-10-23T05:35:14.257Z,12.20
2022-10-23T05:37:44.091Z,12.20
2022-10-23T05:40:12.105Z,12.20
2022-10-23T05:57:33.929Z,12.20
2022-10-23T06:07:30.115Z,12.30
2022-10-23T06:19:50.589Z,9.40
2022-10-23T06:24:48.200Z,12.40
2022-10-23T06:42:04.135Z,12.50
2022-10-23T07:06:46.312Z,12.70
2022-10-23T07:21:34.786Z,12.80
2022-10-23T07:24:02.857Z,12.80
2022-10-23T07:31:28.177Z,12.80
2022-10-23T07:38:52.164Z,12.90
2022-10-23T07:51:14.141Z,13.00
2022-10-23T07:53:44.179Z,13.00
2022-10-23T07:56:37.074Z,13.00
2022-10-23T07:59:19.452Z,13.00
2022-10-23T08:01:55.073Z,13.00
2022-10-23T08:08:07.557Z,13.00
2022-10-23T08:10:47.644Z,13.00
2022-10-23T08:15:53.664Z,13.00
2022-10-23T08:18:55.037Z,13.10
2022-10-23T08:23:55.500Z,13.10
2022-10-23T08:26:27.309Z,13.20
2022-10-23T08:36:38.895Z,10.70
2022-10-23T08:39:07.488Z,13.20
2022-10-23T08:41:40.077Z,13.10
2022-10-23T08:44:39.887Z,13.10
2022-10-23T08:47:15.960Z,13.00
2022-10-23T08:50:06.973Z,13.00
2022-10-23T08:53:17.216Z,13.30
2022-10-23T08:55:49.954Z,13.00
2022-10-23T08:58:32.110Z,13.00
2022-10-23T09:06:15.796Z,13.00
2022-10-23T09:09:22.708Z,13.10
2022-10-23T09:12:14.092Z,13.10
2022-10-23T09:15:14.534Z,13.10
2022-10-23T09:17:43.938Z,13.20
2022-10-23T09:20:34.411Z,13.20
2022-10-23T09:23:07.985Z,13.20
2022-10-23T09:25:39.826Z,13.30
2022-10-23T09:30:43.432Z,13.40
2022-10-23T09:33:18.482Z,13.50
2022-10-23T09:36:06.911Z,13.60
2022-10-23T09:38:54.913Z,13.70
2022-10-23T09:41:39.237Z,13.70
2022-10-23T09:44:28.092Z,13.70
2022-10-23T09:47:18.612Z,13.70
2022-10-23T09:49:49.881Z,13.70
2022-10-23T09:52:37.891Z,13.70
2022-10-23T09:55:21.543Z,13.70
2022-10-23T10:00:46.774Z,13.70
2022-10-23T10:03:23.905Z,13.70
2022-10-23T10:05:58.521Z,13.60
2022-10-23T10:08:50.194Z,13.60
2022-10-23T10:11:42.805Z,13.70
2022-10-23T10:14:36.186Z,13.70
2022-10-23T10:17:27.411Z,13.70
2022-10-23T10:20:34.368Z,13.50
2022-10-23T10:23:41.279Z,13.40
2022-10-23T10:26:48.093Z,13.40
2022-10-23T10:29:47.133Z,13.30
2022-10-23T10:32:38.073Z,13.40
2022-10-23T10:35:38.390Z,13.40
2022-10-23T10:38:45.440Z,13.40
2022-10-23T10:41:37.810Z,13.50
2022-10-23T10:44:34.775Z,13.50
2022-10-23T10:47:30.368Z,13.50
2022-10-23T10:50:28.885Z,13.60
2022-10-23T10:53:35.679Z,13.60
2022-10-23T10:56:03.992Z,13.50
2022-10-23T10:58:58.835Z,13.50
2022-10-23T11:01:49.930Z,13.50
2022-10-23T11:04:44.838Z,13.40
2022-10-23T11:07:15.381Z,13.40
2022-10-23T11:09:43.674Z,13.40
2022-10-23T11:12:28.404Z,13.40
2022-10-23T11:14:56.783Z,13.40
2022-10-23T11:17:34.647Z,13.40
2022-10-23T11:20:40.867Z,13.20
2022-10-23T11:23:43.350Z,13.40
2022-10-23T11:26:52.072Z,13.40
2022-10-23T11:29:58.964Z,10.80
2022-10-23T11:33:09.324Z,13.50
2022-10-23T11:36:16.365Z,13.80
2022-10-23T11:38:48.839Z,14.00
2022-10-23T11:41:25.653Z,14.10
2022-10-23T11:44:15.213Z,14.20
2022-10-23T11:49:21.491Z,14.30
2022-10-23T11:54:36.014Z,14.20
2022-10-23T11:57:13.494Z,14.30
2022-10-23T11:59:53.646Z,14.40
2022-10-23T12:02:44.926Z,14.40
2022-10-23T12:05:58.194Z,14.40
2022-10-23T12:08:28.503Z,14.50
2022-10-23T12:10:56.350Z,14.60
2022-10-23T12:13:45.532Z,14.60
2022-10-23T12:16:16.093Z,14.60
2022-10-23T12:18:52.116Z,14.70
2022-10-23T12:21:24.344Z,14.60
2022-10-23T12:24:39.737Z,14.50
2022-10-23T12:27:33.115Z,14.40
2022-10-23T12:30:25.597Z,14.60
2022-10-23T12:33:32.542Z,14.50
2022-10-23T12:36:43.591Z,14.20
2022-10-23T12:39:28.275Z,14.20
2022-10-23T12:44:25.501Z,14.20
2022-10-23T12:46:57.433Z,14.20
2022-10-23T12:49:27.340Z,14.20
2022-10-23T12:52:30.175Z,14.30
2022-10-23T12:55:00.797Z,14.10
2022-10-23T12:57:30.444Z,14.10
2022-10-23T13:00:10.447Z,14.00
2022-10-23T13:05:11.187Z,14.00
2022-10-23T13:07:44.707Z,14.00
2022-10-23T13:10:15.604Z,13.90
2022-10-23T13:12:47.508Z,13.80
2022-10-23T13:15:36.200Z,13.70
2022-10-23T13:18:04.925Z,13.80
2022-10-23T13:20:35.617Z,13.80
2022-10-23T13:23:33.164Z,13.80
2022-10-23T13:26:24.647Z,13.90
2022-10-23T13:31:38.962Z,13.90
2022-10-23T13:34:16.339Z,14.00
2022-10-23T13:36:56.386Z,14.10
2022-10-23T13:39:27.495Z,14.00
2022-10-23T13:44:24.086Z,14.20
2022-10-23T13:46:52.315Z,14.10
2022-10-23T13:49:20.149Z,14.00
2022-10-23T14:20:09.473Z,14.00
2022-10-23T14:25:05.551Z,14.00
2022-10-23T14:57:04.192Z,13.20
2022-10-23T15:11:48.616Z,12.70
2022-10-23T15:19:15.403Z,12.60
2022-10-23T15:31:58.747Z,12.20
2022-10-23T15:34:27.988Z,12.10
2022-10-23T15:36:56.865Z,12.10
2022-10-23T15:39:26.939Z,12.10
2022-10-23T15:41:56.884Z,12.00
2022-10-23T15:44:26.400Z,12.00
2022-10-23T15:54:19.196Z,11.80
2022-10-23T15:56:48.095Z,11.70
2022-10-23T16:11:36.291Z,11.40
2022-10-23T16:16:33.007Z,11.30
2022-10-23T16:19:01.851Z,11.30
2022-10-23T16:21:31.989Z,11.20
2022-10-23T16:24:00.556Z,10.90
2022-10-23T16:26:29.305Z,10.80
2022-10-23T16:28:58.417Z,10.70
2022-10-23T16:31:26.286Z,10.70
2022-10-23T16:33:54.393Z,10.70
2022-10-23T16:46:14.570Z,10.80
2022-10-23T16:51:12.534Z,10.60
2022-10-23T16:56:09.206Z,10.40
2022-10-23T17:01:09.797Z,10.30
2022-10-23T17:03:48.677Z,10.30
2022-10-23T17:06:18.908Z,10.30
2022-10-23T17:11:19.286Z,10.30
2022-10-23T17:13:55.699Z,10.30
2022-10-23T17:16:35.139Z,10.30
2022-10-23T17:19:08.397Z,10.20
2022-10-23T17:21:40.773Z,10.20
2022-10-23T17:24:09.836Z,10.20
2022-10-23T17:26:37.929Z,10.10
2022-10-23T17:29:08.922Z,10.00
2022-10-23T17:31:41.731Z,9.80
2022-10-23T17:34:12.022Z,9.70
2022-10-23T17:36:43.334Z,9.60
2022-10-23T17:39:56.427Z,9.50
2022-10-23T17:45:52.435Z,11.50
2022-10-23T17:49:19.778Z,9.30
2022-10-23T17:56:33.429Z,9.10
2022-10-23T18:05:52.627Z,9.00
2022-10-23T18:10:41.869Z,9.00
2022-10-23T18:14:38.841Z,9.00
2022-10-23T18:24:31.896Z,8.90
2022-10-23T18:33:47.141Z,8.70
2022-10-23T19:16:01.591Z,8.50
2022-10-23T19:23:49.080Z,8.40
2022-10-23T19:48:09.355Z,8.30
2022-10-23T19:54:27.232Z,8.30
2022-10-23T19:57:07.454Z,8.30
2022-10-23T20:00:43.963Z,8.30
2022-10-23T20:03:55.945Z,8.20
2022-10-23T20:07:03.409Z,8.20
2022-10-23T20:10:12.648Z,8.20
2022-10-23T20:16:37.414Z,8.20
2022-10-23T20:19:30.829Z,8.20
2022-10-23T20:24:28.970Z,8.00
2022-10-23T20:26:56.946Z,8.10
2022-10-23T20:34:23.962Z,8.00
2022-10-23T20:36:56.149Z,7.90
2022-10-23T20:39:29.869Z,7.90
2022-10-23T20:52:00.635Z,7.70
2022-10-23T20:56:59.557Z,7.70
2022-10-23T21:02:31.138Z,7.60
2022-10-23T21:05:09.062Z,7.50
2022-10-23T21:07:47.250Z,7.50
2022-10-23T21:10:33.140Z,7.50
2022-10-23T21:21:25.413Z,7.50
2022-10-23T21:23:59.749Z,7.60
2022-10-23T21:26:33.205Z,7.60
2022-10-23T21:29:17.895Z,7.70
2022-10-23T21:40:07.256Z,7.60
2022-10-23T21:42:51.219Z,7.60
2022-10-23T22:00:13.665Z,7.70
2022-10-23T22:10:41.734Z,7.90
2022-10-23T22:13:32.593Z,7.90
2022-10-23T22:16:17.092Z,8.00
2022-10-23T22:19:22.311Z,7.90
2022-10-23T22:22:40.585Z,8.20
2022-10-23T22:25:34.913Z,8.20
2022-10-23T22:34:47.745Z,8.20
2022-10-23T22:37:48.837Z,8.20
2022-10-23T22:44:33.547Z,8.10
2022-10-23T22:51:25.467Z,8.00
2022-10-23T22:54:44.842Z,8.00
2022-10-23T23:01:10.623Z,8.10
2022-10-23T23:06:38.307Z,8.20
2022-10-23T23:11:51.224Z,8.10
2022-10-23T23:16:55.457Z,8.00
2022-10-23T23:19:23.421Z,8.00
2022-10-23T23:21:51.282Z,8.00
2022-10-23T23:29:39.561Z,8.00
2022-10-23T23:39:36.745Z,8.00
2022-10-23T23:52:03.575Z,7.90
2022-10-23T23:57:08.556Z,7.90
2022-10-23T23:59:43.216Z,8.00
